Time;durP1;ratioP1;P1;durP2;ratioP2;P2;SDS_P1;SDS_P2;PMS_P1;PMS_P2;Temp;Humidity;BMP_temperature;BMP_pressure;BME280_temperature;BME280_humidity;BME280_pressure;Samples;Min_cycle;Max_cycle;Signal;HPM_P1;HPM_P2
2022/08/26 00:01:27;;;;;;;36.70;32.73;;;21.70;99.90;;;;;;5064729;28;20211;-45
2022/08/26 00:03:53;;;;;;;37.17;31.93;;;21.60;99.90;;;;;;5046658;28;20192;-45
2022/08/26 00:06:19;;;;;;;39.97;34.00;;;21.60;99.90;;;;;;5064684;28;20188;-44
2022/08/26 00:08:45;;;;;;;45.93;33.87;;;21.60;99.90;;;;;;5064428;28;20204;-46
2022/08/26 00:11:11;;;;;;;40.93;34.93;;;21.60;99.90;;;;;;5065736;28;20215;-46
2022/08/26 00:13:38;;;;;;;46.73;34.20;;;21.60;99.90;;;;;;5065665;28;20660;-45
2022/08/26 00:16:05;;;;;;;38.00;33.67;;;21.50;99.90;;;;;;5065267;28;20187;-46
2022/08/26 00:18:31;;;;;;;39.07;32.57;;;21.50;99.90;;;;;;5064874;28;20552;-45
2022/08/26 00:20:56;;;;;;;39.73;32.70;;;21.50;99.90;;;;;;5064894;28;20207;-42
2022/08/26 00:23:22;;;;;;;37.97;32.80;;;21.50;99.90;;;;;;5064942;28;20185;-44
2022/08/26 00:25:48;;;;;;;42.10;33.43;;;21.50;99.90;;;;;;5064737;28;20188;-45
2022/08/26 00:28:14;;;;;;;35.83;30.63;;;21.40;99.90;;;;;;5047071;28;20181;-45
2022/08/26 00:30:39;;;;;;;42.00;32.43;;;21.40;99.90;;;;;;5065400;28;20211;-46
2022/08/26 00:33:05;;;;;;;38.73;31.80;;;21.30;99.90;;;;;;5065483;28;20215;-45
2022/08/26 00:35:31;;;;;;;38.00;31.47;;;21.30;99.90;;;;;;5047730;28;20251;-45
2022/08/26 00:37:58;;;;;;;40.13;31.27;;;21.30;99.90;;;;;;5065563;28;20183;-44
2022/08/26 00:40:29;;;;;;;38.63;31.17;;;21.20;99.90;;;;;;5047594;28;20640;-45
2022/08/26 00:42:55;;;;;;;35.57;29.43;;;21.20;99.90;;;;;;5064911;28;20172;-45
2022/08/26 00:45:21;;;;;;;38.47;30.03;;;21.20;99.90;;;;;;5065616;28;20184;-43
2022/08/26 00:48:00;;;;;;;36.20;29.10;;;21.20;99.90;;;;;;5065473;28;20204;-45
2022/08/26 00:50:30;;;;;;;36.93;28.20;;;21.20;99.90;;;;;;5065890;28;20184;-45
2022/08/26 00:52:58;;;;;;;35.77;28.93;;;21.10;99.90;;;;;;5065221;28;20204;-46
2022/08/26 00:55:35;;;;;;;32.17;26.23;;;21.10;99.90;;;;;;5065676;28;20207;-46
2022/08/26 00:58:01;;;;;;;36.83;28.70;;;21.10;99.90;;;;;;5065283;28;20168;-44
2022/08/26 01:00:29;;;;;;;31.80;27.97;;;21.10;99.90;;;;;;5065442;28;20176;-45
2022/08/26 01:02:57;;;;;;;31.97;25.53;;;21.10;99.90;;;;;;5064506;28;20648;-45
2022/08/26 01:05:24;;;;;;;29.47;25.50;;;21.00;99.90;;;;;;5066016;28;20180;-45
2022/08/26 01:07:50;;;;;;;33.27;25.97;;;21.00;99.90;;;;;;5065486;28;20193;-45
2022/08/26 01:10:20;;;;;;;28.50;24.60;;;21.00;99.90;;;;;;5047879;28;20238;-45
2022/08/26 01:12:51;;;;;;;29.77;23.77;;;21.00;99.90;;;;;;5065835;28;20204;-43
2022/08/26 01:15:21;;;;;;;28.17;23.00;;;21.00;99.90;;;;;;5066012;28;20255;-46
2022/08/26 01:17:46;;;;;;;30.23;22.10;;;21.00;99.90;;;;;;5065604;28;20172;-45
2022/08/26 01:20:37;;;;;;;25.37;21.17;;;21.00;99.90;;;;;;5065652;28;20250;-44
2022/08/26 01:23:06;;;;;;;26.97;20.40;;;21.00;99.90;;;;;;5065501;28;20153;-45
2022/08/26 01:25:35;;;;;;;26.30;19.90;;;21.00;99.90;;;;;;5066151;28;20628;-45
2022/08/26 01:28:04;;;;;;;26.77;20.33;;;21.00;99.90;;;;;;5065648;28;20658;-45
2022/08/26 01:30:31;;;;;;;27.93;20.63;;;21.00;99.90;;;;;;5065779;28;20233;-45
2022/08/26 01:33:00;;;;;;;32.60;21.83;;;21.00;99.90;;;;;;5065477;28;20196;-44
2022/08/26 01:35:27;;;;;;;30.17;21.63;;;21.00;99.90;;;;;;5048354;28;20184;-45
2022/08/26 01:37:54;;;;;;;27.37;21.07;;;20.90;99.90;;;;;;5065991;28;20259;-45
2022/08/26 01:40:25;;;;;;;30.53;22.13;;;20.90;99.90;;;;;;5065841;28;20172;-45
2022/08/26 01:42:52;;;;;;;27.97;21.03;;;20.90;99.90;;;;;;5066177;28;20252;-45
2022/08/26 01:45:23;;;;;;;25.37;18.20;;;20.90;99.90;;;;;;5065061;28;20267;-46
2022/08/26 01:47:52;;;;;;;26.43;20.40;;;20.90;99.90;;;;;;5065224;28;20164;-44
2022/08/26 01:50:21;;;;;;;30.17;21.17;;;20.90;99.90;;;;;;5047837;28;20179;-45
2022/08/26 01:52:48;;;;;;;25.30;20.93;;;20.90;99.90;;;;;;5047204;28;20207;-45
2022/08/26 01:55:17;;;;;;;29.20;20.40;;;20.80;99.90;;;;;;5064623;28;20179;-43
2022/08/26 01:57:44;;;;;;;29.93;22.17;;;20.80;99.90;;;;;;5047679;28;20191;-44
2022/08/26 02:00:14;;;;;;;24.80;21.43;;;20.80;99.90;;;;;;5064530;28;20180;-45
2022/08/26 02:02:42;;;;;;;26.63;21.00;;;20.70;99.90;;;;;;5065266;28;20246;-43
2022/08/26 02:05:10;;;;;;;27.00;20.60;;;20.70;99.90;;;;;;5065713;28;20176;-46
2022/08/26 02:07:38;;;;;;;27.23;20.20;;;20.70;99.90;;;;;;5065663;28;20184;-43
2022/08/26 02:10:05;;;;;;;23.97;20.67;;;20.70;99.90;;;;;;5065069;28;20207;-46
2022/08/26 02:12:31;;;;;;;27.00;21.07;;;20.70;99.90;;;;;;5065008;28;20219;-46
2022/08/26 02:15:00;;;;;;;29.23;21.10;;;20.70;99.90;;;;;;5065245;28;20207;-45
2022/08/26 02:17:33;;;;;;;28.73;20.00;;;20.60;99.90;;;;;;5064983;28;20640;-45
2022/08/26 02:19:59;;;;;;;23.27;18.13;;;20.70;99.90;;;;;;5047700;28;20171;-45
2022/08/26 02:22:25;;;;;;;26.13;19.13;;;20.60;99.90;;;;;;5065454;28;20199;-45
2022/08/26 02:24:57;;;;;;;26.10;18.80;;;20.60;99.90;;;;;;5065734;28;20176;-46
2022/08/26 02:27:29;;;;;;;23.83;19.23;;;20.60;99.90;;;;;;5065266;28;20648;-45
2022/08/26 02:30:36;;;;;;;26.07;19.07;;;20.60;99.90;;;;;;5047615;28;20270;-45
2022/08/26 02:33:05;;;;;;;24.23;18.27;;;20.60;99.90;;;;;;5065211;28;20234;-44
2022/08/26 02:35:32;;;;;;;23.60;17.57;;;20.60;99.90;;;;;;5060153;28;20168;-41
2022/08/26 02:37:58;;;;;;;23.00;17.57;;;20.60;99.90;;;;;;5053571;28;20180;-41
2022/08/26 02:40:31;;;;;;;20.63;17.27;;;20.60;99.90;;;;;;5053734;28;20173;-41
2022/08/26 02:42:57;;;;;;;26.63;17.50;;;20.60;99.90;;;;;;5053837;28;20229;-41
2022/08/26 02:45:23;;;;;;;21.20;17.00;;;20.60;99.90;;;;;;5054122;28;20696;-40
2022/08/26 02:47:50;;;;;;;23.10;15.93;;;20.60;99.90;;;;;;5053757;28;20184;-40
2022/08/26 02:50:15;;;;;;;18.40;15.73;;;20.60;99.90;;;;;;5053463;28;20662;-41
2022/08/26 02:52:41;;;;;;;23.10;16.33;;;20.60;99.90;;;;;;5053215;28;20242;-40
2022/08/26 02:55:07;;;;;;;20.67;16.40;;;20.60;99.90;;;;;;5053606;28;20177;-41
2022/08/26 02:57:33;;;;;;;19.63;14.40;;;20.60;99.90;;;;;;5053297;28;20179;-41
2022/08/26 02:59:59;;;;;;;20.67;15.50;;;20.60;99.90;;;;;;5053291;28;20219;-41
2022/08/26 03:02:26;;;;;;;20.20;14.97;;;20.60;99.90;;;;;;5053196;28;20195;-39
2022/08/26 03:04:51;;;;;;;17.97;13.90;;;20.60;99.90;;;;;;5053257;28;20537;-40
2022/08/26 03:07:18;;;;;;;20.70;14.07;;;20.60;99.90;;;;;;5053301;28;20177;-40
2022/08/26 03:09:44;;;;;;;20.30;14.50;;;20.60;99.90;;;;;;5061455;28;20283;-45
2022/08/26 03:12:10;;;;;;;19.67;13.93;;;20.60;99.90;;;;;;5064241;28;20243;-45
2022/08/26 03:14:36;;;;;;;20.73;13.43;;;20.60;99.90;;;;;;5065912;28;20206;-46
2022/08/26 03:17:02;;;;;;;18.17;13.53;;;20.60;99.90;;;;;;5063579;28;20534;-44
2022/08/26 03:19:29;;;;;;;20.17;13.53;;;20.50;99.90;;;;;;5063721;28;20770;-44
2022/08/26 03:21:55;;;;;;;17.27;12.87;;;20.50;99.90;;;;;;5063427;28;20245;-44
2022/08/26 03:24:21;;;;;;;17.50;13.10;;;20.50;99.90;;;;;;5046095;28;20184;-45
2022/08/26 03:26:46;;;;;;;19.43;12.53;;;20.50;99.90;;;;;;5060002;28;20168;-44
2022/08/26 03:31:56;;;;;;;21.37;11.10;;;20.50;99.90;;;;;;5055294;28;20318;-44
2022/08/26 03:34:22;;;;;;;17.50;12.30;;;20.50;99.90;;;;;;5054033;28;20217;-44
2022/08/26 03:36:48;;;;;;;15.37;10.83;;;20.50;99.90;;;;;;5053167;28;20184;-44
2022/08/26 03:39:14;;;;;;;17.90;12.13;;;20.50;99.90;;;;;;5052935;28;20638;-44
2022/08/26 03:41:40;;;;;;;14.87;10.83;;;20.50;99.90;;;;;;5052795;28;20203;-42
2022/08/26 03:44:09;;;;;;;14.70;11.27;;;20.50;99.90;;;;;;5053067;28;20173;-43
2022/08/26 03:46:36;;;;;;;20.10;12.13;;;20.50;99.90;;;;;;5052843;28;20550;-43
2022/08/26 03:49:04;;;;;;;15.80;10.93;;;20.40;99.90;;;;;;5053007;28;20180;-42
2022/08/26 03:51:30;;;;;;;17.77;10.30;;;20.40;99.90;;;;;;5052963;28;20200;-44
2022/08/26 03:53:56;;;;;;;18.23;10.73;;;20.40;99.90;;;;;;5053257;28;20231;-43
2022/08/26 03:56:21;;;;;;;12.60;10.23;;;20.40;99.90;;;;;;5052705;28;20211;-43
2022/08/26 03:58:47;;;;;;;14.13;11.03;;;20.40;99.90;;;;;;5052949;28;20184;-44
2022/08/26 04:01:13;;;;;;;11.63;9.60;;;20.40;99.90;;;;;;5052716;28;20200;-43
2022/08/26 04:03:57;;;;;;;17.43;9.97;;;20.40;99.90;;;;;;5053003;28;20242;-43
2022/08/26 04:06:28;;;;;;;13.80;9.63;;;20.40;99.90;;;;;;5053403;28;20513;-44
2022/08/26 04:08:57;;;;;;;15.30;9.87;;;20.50;99.90;;;;;;5054527;28;20278;-43
2022/08/26 04:11:30;;;;;;;12.17;8.23;;;20.50;99.90;;;;;;5055234;28;20656;-44
2022/08/26 04:13:58;;;;;;;9.97;8.27;;;20.40;99.90;;;;;;5055054;28;20223;-44
2022/08/26 04:16:24;;;;;;;15.73;9.00;;;20.40;99.90;;;;;;5053313;28;20652;-42
2022/08/26 04:18:50;;;;;;;13.50;8.47;;;20.40;99.90;;;;;;5052810;28;20573;-44
2022/08/26 04:21:15;;;;;;;15.77;8.87;;;20.40;99.90;;;;;;5052425;28;20231;-43
2022/08/26 04:23:41;;;;;;;13.67;7.97;;;20.40;99.90;;;;;;5054532;28;20727;-42
2022/08/26 04:26:07;;;;;;;12.10;7.93;;;20.40;99.90;;;;;;5056390;28;20180;-45
2022/08/26 04:28:33;;;;;;;12.03;7.53;;;20.40;99.90;;;;;;5056058;28;20183;-45
2022/08/26 04:30:58;;;;;;;9.43;7.20;;;20.40;99.90;;;;;;5056139;28;20196;-42
2022/08/26 04:33:24;;;;;;;16.43;6.87;;;20.40;99.90;;;;;;5056050;28;20212;-45
2022/08/26 04:35:57;;;;;;;10.70;7.07;;;20.40;99.90;;;;;;5056535;28;20637;-41
2022/08/26 04:38:23;;;;;;;10.93;6.03;;;20.40;99.90;;;;;;5055888;28;20210;-41
2022/08/26 04:40:48;;;;;;;10.70;6.33;;;20.40;99.90;;;;;;5055819;28;20192;-43
2022/08/26 04:43:14;;;;;;;11.63;6.47;;;20.40;99.90;;;;;;5056064;28;20188;-45
2022/08/26 04:45:41;;;;;;;9.03;6.30;;;20.30;99.90;;;;;;5056021;28;20636;-42
2022/08/26 04:48:07;;;;;;;8.57;6.50;;;20.40;99.90;;;;;;5056050;28;20180;-43
2022/08/26 04:50:33;;;;;;;9.87;5.93;;;20.40;99.90;;;;;;5056203;28;20190;-44
2022/08/26 04:52:59;;;;;;;8.23;5.50;;;20.30;99.90;;;;;;5055664;28;20200;-45
2022/08/26 04:55:25;;;;;;;11.67;6.10;;;20.40;99.90;;;;;;5055714;28;20532;-44
2022/08/26 04:57:52;;;;;;;12.30;5.97;;;20.40;99.90;;;;;;5055746;28;20633;-44
2022/08/26 05:00:17;;;;;;;8.63;5.53;;;20.40;99.90;;;;;;5055934;28;20200;-44
2022/08/26 05:02:43;;;;;;;8.37;5.47;;;20.40;99.90;;;;;;5055482;28;20294;-44
2022/08/26 05:05:09;;;;;;;9.50;5.37;;;20.40;99.90;;;;;;5055525;28;20180;-42
2022/08/26 05:07:35;;;;;;;8.13;5.07;;;20.40;99.90;;;;;;5038335;28;20297;-43
2022/08/26 05:10:02;;;;;;;8.27;5.10;;;20.40;99.90;;;;;;5055470;28;20231;-44
2022/08/26 05:12:29;;;;;;;11.43;5.50;;;20.40;99.90;;;;;;5055881;28;20618;-44
2022/08/26 05:14:55;;;;;;;12.93;6.67;;;20.40;99.90;;;;;;5055552;28;20194;-44
2022/08/26 05:17:20;;;;;;;7.87;5.20;;;20.40;99.90;;;;;;5055079;28;20262;-44
2022/08/26 05:19:46;;;;;;;10.17;5.03;;;20.30;99.90;;;;;;5055049;28;20180;-45
2022/08/26 05:22:13;;;;;;;11.53;5.17;;;20.40;99.90;;;;;;5055519;28;20204;-44
2022/08/26 05:24:39;;;;;;;6.03;4.73;;;20.40;99.90;;;;;;5055290;28;20216;-45
2022/08/26 05:27:06;;;;;;;8.50;5.17;;;20.40;99.90;;;;;;5054995;28;20271;-45
2022/08/26 05:29:31;;;;;;;6.67;4.80;;;20.40;99.90;;;;;;5055013;28;20656;-44
2022/08/26 05:31:57;;;;;;;9.57;5.23;;;20.40;99.90;;;;;;5054785;28;20212;-42
2022/08/26 05:34:23;;;;;;;7.17;4.83;;;20.40;99.90;;;;;;5054354;28;20235;-45
2022/08/26 05:36:48;;;;;;;6.73;5.07;;;20.40;99.90;;;;;;5055382;28;20176;-43
2022/08/26 05:39:14;;;;;;;9.63;4.67;;;20.40;99.90;;;;;;5037325;28;20212;-44
2022/08/26 05:41:41;;;;;;;5.83;4.57;;;20.40;99.90;;;;;;5055059;28;20230;-43
2022/08/26 05:44:11;;;;;;;13.67;6.23;;;20.40;99.90;;;;;;5055009;28;20176;-44
2022/08/26 05:46:38;;;;;;;11.47;5.37;;;20.40;99.90;;;;;;5054710;28;20548;-45
2022/08/26 05:49:06;;;;;;;9.67;5.40;;;20.50;99.90;;;;;;5054933;28;20180;-45
2022/08/26 05:51:32;;;;;;;12.93;5.63;;;20.50;99.90;;;;;;5054659;28;20203;-44
2022/08/26 05:54:01;;;;;;;8.13;4.67;;;20.50;99.90;;;;;;5036643;28;20664;-44
2022/08/26 05:56:27;;;;;;;9.50;5.00;;;20.50;99.90;;;;;;5054772;28;20157;-41
2022/08/26 05:58:54;;;;;;;8.33;4.97;;;20.40;99.90;;;;;;5054696;28;20238;-38
2022/08/26 06:01:24;;;;;;;8.40;5.20;;;20.50;99.90;;;;;;5054246;28;20216;-41
2022/08/26 06:03:51;;;;;;;9.93;4.80;;;20.50;99.90;;;;;;5054529;28;20172;-40
2022/08/26 06:06:20;;;;;;;9.00;4.80;;;20.40;99.90;;;;;;5054639;28;20267;-41
2022/08/26 06:08:46;;;;;;;11.47;4.47;;;20.50;99.90;;;;;;5054248;28;20203;-41
2022/08/26 06:11:14;;;;;;;8.13;3.83;;;20.40;99.90;;;;;;5054579;28;20235;-42
2022/08/26 06:13:40;;;;;;;8.47;4.47;;;20.50;99.90;;;;;;5053960;28;20310;-40
2022/08/26 06:16:09;;;;;;;7.33;4.70;;;20.50;99.90;;;;;;5054310;28;20215;-40
2022/08/26 06:18:38;;;;;;;8.77;4.10;;;20.50;99.90;;;;;;5054896;28;20567;-40
2022/08/26 06:21:17;;;;;;;8.67;3.97;;;20.50;99.90;;;;;;5054261;28;20204;-39
2022/08/26 06:26:30;;;;;;;5.20;3.37;;;20.40;99.90;;;;;;5054194;28;20176;-41
2022/08/26 06:28:57;;;;;;;9.00;4.17;;;20.40;99.90;;;;;;5053815;28;20651;-40
2022/08/26 06:31:24;;;;;;;13.33;4.40;;;20.50;99.90;;;;;;5053695;28;20211;-41
2022/08/26 06:33:50;;;;;;;5.37;3.47;;;20.40;99.90;;;;;;5053644;28;20220;-40
2022/08/26 06:36:18;;;;;;;9.00;3.50;;;20.40;99.90;;;;;;5054049;28;20210;-40
2022/08/26 06:38:45;;;;;;;8.50;3.63;;;20.40;99.90;;;;;;5053902;28;20225;-41
2022/08/26 06:41:11;;;;;;;11.43;3.87;;;20.40;99.90;;;;;;5035739;28;20253;-41
2022/08/26 06:43:37;;;;;;;9.33;3.47;;;20.50;99.90;;;;;;5053666;28;20185;-41
2022/08/26 06:46:06;;;;;;;7.20;3.70;;;20.50;99.90;;;;;;5056248;28;20188;-39
2022/08/26 06:48:32;;;;;;;7.00;3.33;;;20.50;99.90;;;;;;5059157;28;20184;-39
2022/08/26 06:51:09;;;;;;;5.80;3.23;;;20.60;99.90;;;;;;5056476;28;20211;-42
2022/08/26 06:53:36;;;;;;;5.73;3.53;;;20.50;99.90;;;;;;5053719;28;20249;-41
2022/08/26 06:56:05;;;;;;;5.97;3.50;;;20.60;99.90;;;;;;5054648;28;20184;-41
2022/08/26 06:58:32;;;;;;;7.13;3.30;;;20.60;99.90;;;;;;5053639;28;20180;-41
2022/08/26 07:00:58;;;;;;;6.60;3.30;;;20.60;99.90;;;;;;5053456;28;20196;-42
2022/08/26 07:03:23;;;;;;;7.87;3.50;;;20.70;99.90;;;;;;5053479;28;20599;-41
2022/08/26 07:05:49;;;;;;;7.47;3.40;;;20.70;99.90;;;;;;5054146;28;20180;-42
2022/08/26 07:08:15;;;;;;;6.80;3.37;;;20.70;99.90;;;;;;5035315;28;20200;-40
2022/08/26 07:10:41;;;;;;;4.33;3.03;;;20.70;99.90;;;;;;5053512;28;20215;-41
2022/08/26 07:13:08;;;;;;;9.57;3.70;;;20.70;99.90;;;;;;5035438;28;20226;-40
2022/08/26 07:15:34;;;;;;;5.93;3.37;;;20.80;99.90;;;;;;5053766;28;20184;-40
2022/08/26 07:18:01;;;;;;;7.30;3.30;;;20.80;99.90;;;;;;5053210;28;20176;-40
2022/08/26 07:20:27;;;;;;;8.57;3.27;;;20.90;99.90;;;;;;5053503;28;20160;-41
2022/08/26 07:22:53;;;;;;;12.23;3.33;;;20.80;99.90;;;;;;5053503;28;20180;-39
2022/08/26 07:25:19;;;;;;;6.73;3.20;;;20.80;99.90;;;;;;5059157;28;20552;-42
2022/08/26 07:27:45;;;;;;;12.40;3.40;;;20.90;99.90;;;;;;5061444;28;20242;-43
2022/08/26 07:30:11;;;;;;;9.83;3.40;;;20.90;99.90;;;;;;5062287;28;20176;-42
2022/08/26 07:32:36;;;;;;;5.30;3.07;;;20.90;99.90;;;;;;5062052;28;20299;-45
2022/08/26 07:35:04;;;;;;;5.20;3.00;;;20.80;99.90;;;;;;5061940;28;20180;-44
2022/08/26 07:37:29;;;;;;;6.00;3.00;;;20.80;99.90;;;;;;5062537;28;20195;-44
2022/08/26 07:39:55;;;;;;;8.40;3.30;;;20.90;99.90;;;;;;5044748;28;20184;-42
2022/08/26 07:42:21;;;;;;;5.40;3.30;;;20.90;99.90;;;;;;5063052;28;20203;-44
2022/08/26 07:44:47;;;;;;;7.17;3.37;;;20.90;99.90;;;;;;5063016;28;20208;-44
2022/08/26 07:47:13;;;;;;;6.87;2.80;;;20.90;99.90;;;;;;5063168;28;20636;-44
2022/08/26 07:49:39;;;;;;;8.17;3.50;;;21.00;99.90;;;;;;5063170;28;20330;-45
2022/08/26 07:52:05;;;;;;;7.93;2.90;;;20.90;99.90;;;;;;5062609;28;20665;-43
2022/08/26 07:54:31;;;;;;;7.77;2.97;;;21.00;99.90;;;;;;5062999;28;20177;-44
2022/08/26 07:56:57;;;;;;;5.37;3.40;;;21.00;99.90;;;;;;5063078;28;20179;-44
2022/08/26 07:59:23;;;;;;;7.73;2.73;;;21.00;99.90;;;;;;5066563;28;20208;-43
2022/08/26 08:01:49;;;;;;;11.33;2.97;;;21.00;99.90;;;;;;5066917;28;20192;-44
2022/08/26 08:04:16;;;;;;;6.60;2.73;;;21.00;99.90;;;;;;5067614;28;20176;-45
2022/08/26 08:06:42;;;;;;;4.90;2.80;;;21.00;99.90;;;;;;5067835;28;20184;-45
2022/08/26 08:09:08;;;;;;;6.00;2.73;;;21.00;99.90;;;;;;5067745;28;20192;-44
2022/08/26 08:11:33;;;;;;;6.37;2.60;;;21.00;99.90;;;;;;5067677;28;20207;-45
2022/08/26 08:14:00;;;;;;;7.10;2.77;;;21.00;99.90;;;;;;5067633;28;20239;-45
2022/08/26 08:16:27;;;;;;;6.77;2.43;;;21.00;99.90;;;;;;5049407;28;20176;-45
2022/08/26 08:18:53;;;;;;;9.47;2.80;;;21.10;99.90;;;;;;5067789;28;20180;-45
2022/08/26 08:21:19;;;;;;;13.17;3.00;;;21.10;99.90;;;;;;5067270;28;20446;-45
2022/08/26 08:23:45;;;;;;;5.20;2.37;;;21.20;99.90;;;;;;5067389;28;20187;-45
2022/08/26 08:26:10;;;;;;;5.60;2.80;;;21.20;99.90;;;;;;5050332;28;20199;-46
2022/08/26 08:28:38;;;;;;;4.37;2.63;;;21.30;99.90;;;;;;5047827;28;20180;-45
2022/08/26 08:31:05;;;;;;;10.23;3.07;;;21.20;99.90;;;;;;5064426;28;20208;-45
2022/08/26 08:33:32;;;;;;;7.63;3.00;;;21.30;99.90;;;;;;5065081;28;20204;-46
2022/08/26 08:35:59;;;;;;;4.40;2.83;;;21.30;99.90;;;;;;5064711;28;20203;-45
2022/08/26 08:38:25;;;;;;;8.97;3.20;;;21.30;99.90;;;;;;5065455;28;20173;-45
2022/08/26 08:40:51;;;;;;;8.70;3.30;;;21.30;99.90;;;;;;5065344;28;20218;-43
2022/08/26 08:43:41;;;;;;;6.57;3.60;;;21.30;99.90;;;;;;5048033;28;20184;-46
2022/08/26 08:46:11;;;;;;;5.60;2.87;;;21.30;99.90;;;;;;5066135;28;20172;-45
2022/08/26 08:48:45;;;;;;;6.17;2.63;;;21.40;99.90;;;;;;5065060;28;20469;-45
2022/08/26 08:51:38;;;;;;;6.37;2.80;;;21.40;99.90;;;;;;5047783;28;20290;-45
2022/08/26 08:54:05;;;;;;;6.70;2.97;;;21.40;99.90;;;;;;5047703;28;20200;-43
2022/08/26 08:56:43;;;;;;;7.27;2.57;;;21.40;99.90;;;;;;5065749;28;20172;-44
2022/08/26 08:59:19;;;;;;;7.47;2.70;;;21.40;99.90;;;;;;5065814;28;20228;-45
2022/08/26 09:01:50;;;;;;;4.87;2.80;;;21.50;99.90;;;;;;5048393;28;20204;-45
2022/08/26 09:04:28;;;;;;;10.20;3.03;;;21.60;99.90;;;;;;5066390;28;20179;-44
2022/08/26 09:06:57;;;;;;;6.83;2.67;;;21.60;99.90;;;;;;5066133;28;20168;-45
2022/08/26 09:09:40;;;;;;;8.40;2.70;;;21.60;99.90;;;;;;5066457;28;20203;-44
2022/08/26 09:12:11;;;;;;;7.37;2.90;;;21.60;99.90;;;;;;5065945;28;20222;-46
2022/08/26 09:14:37;;;;;;;6.27;2.17;;;21.50;99.90;;;;;;5065994;28;20169;-45
2022/08/26 09:17:09;;;;;;;4.07;2.13;;;21.60;99.90;;;;;;5066056;28;20180;-46
2022/08/26 09:19:41;;;;;;;13.30;2.83;;;21.50;99.90;;;;;;5066061;28;20180;-45
2022/08/26 09:22:07;;;;;;;7.03;2.03;;;21.60;99.90;;;;;;5066670;28;20200;-45
2022/08/26 09:24:36;;;;;;;7.73;2.73;;;21.50;99.90;;;;;;5066107;28;20183;-45
2022/08/26 09:27:02;;;;;;;4.70;2.07;;;21.50;99.90;;;;;;5048423;28;20188;-44
2022/08/26 09:29:40;;;;;;;8.00;2.80;;;21.60;99.90;;;;;;5065870;28;20521;-44
2022/08/26 09:32:23;;;;;;;4.30;2.10;;;21.70;99.90;;;;;;5066940;28;20203;-45
2022/08/26 09:35:20;;;;;;;5.60;2.30;;;21.70;99.90;;;;;;5048813;28;20530;-45
2022/08/26 09:37:48;;;;;;;3.97;2.20;;;21.70;99.90;;;;;;5046946;28;20267;-45
2022/08/26 09:40:30;;;;;;;6.97;2.60;;;21.80;99.90;;;;;;5065649;28;20210;-44
2022/08/26 09:43:12;;;;;;;5.83;2.77;;;21.80;99.90;;;;;;5065754;28;20194;-45
2022/08/26 09:45:41;;;;;;;4.23;2.00;;;21.90;99.90;;;;;;5064565;28;20188;-46
2022/08/26 09:48:07;;;;;;;6.30;2.20;;;21.90;99.90;;;;;;5065123;28;20198;-43
2022/08/26 09:50:48;;;;;;;4.17;2.00;;;21.90;99.90;;;;;;5047582;28;20202;-44
2022/08/26 09:53:16;;;;;;;4.77;2.50;;;21.90;99.90;;;;;;5065032;28;20203;-44
2022/08/26 09:55:44;;;;;;;5.53;2.40;;;21.90;99.90;;;;;;5064839;28;20192;-45
2022/08/26 09:58:32;;;;;;;5.27;2.37;;;21.80;99.90;;;;;;5064638;28;20176;-45
2022/08/26 10:01:02;;;;;;;3.97;2.30;;;21.80;99.90;;;;;;5064673;28;20196;-46
2022/08/26 10:03:31;;;;;;;7.33;2.20;;;21.80;99.90;;;;;;5064625;28;20609;-44
2022/08/26 10:06:23;;;;;;;9.57;2.27;;;21.80;99.90;;;;;;5064645;28;20198;-45
2022/08/26 10:08:56;;;;;;;4.70;2.30;;;21.80;99.90;;;;;;5054733;28;20575;-46
2022/08/26 10:11:38;;;;;;;10.33;2.90;;;21.80;99.90;;;;;;5064160;28;20208;-45
2022/08/26 10:14:12;;;;;;;6.17;2.17;;;21.80;99.90;;;;;;5065610;28;20224;-45
2022/08/26 10:16:51;;;;;;;4.73;2.17;;;21.80;99.90;;;;;;5063367;28;20173;-44
2022/08/26 10:19:25;;;;;;;7.50;2.40;;;21.90;99.90;;;;;;5063872;28;20188;-46
2022/08/26 10:22:05;;;;;;;6.90;2.90;;;21.90;99.90;;;;;;5064225;28;20202;-44
2022/08/26 10:24:44;;;;;;;4.20;2.20;;;22.00;99.90;;;;;;5065818;28;20156;-46
2022/08/26 10:27:24;;;;;;;6.33;2.60;;;22.00;99.90;;;;;;5065886;28;20172;-45
2022/08/26 10:29:55;;;;;;;7.93;2.77;;;22.00;99.90;;;;;;5065039;28;20608;-42
2022/08/26 10:32:34;;;;;;;8.47;2.33;;;22.00;99.90;;;;;;5064327;28;20200;-46
2022/08/26 10:35:01;;;;;;;7.07;2.10;;;22.00;99.90;;;;;;5064416;28;20186;-45
2022/08/26 10:37:45;;;;;;;4.70;2.00;;;22.00;99.90;;;;;;5064024;28;20689;-45
2022/08/26 10:40:17;;;;;;;7.87;2.10;;;22.00;99.90;;;;;;5064127;28;20168;-45
2022/08/26 10:42:55;;;;;;;3.83;2.00;;;22.10;99.90;;;;;;5064017;28;20301;-44
2022/08/26 10:45:25;;;;;;;4.87;2.27;;;22.10;99.90;;;;;;5063361;28;20199;-46
2022/08/26 10:47:59;;;;;;;7.13;2.40;;;22.30;99.90;;;;;;5062868;28;20177;-45
2022/08/26 10:50:46;;;;;;;5.97;2.30;;;22.30;99.90;;;;;;5063274;28;20172;-44
2022/08/26 10:53:33;;;;;;;7.33;2.37;;;22.40;99.90;;;;;;5063601;28;20680;-45
2022/08/26 10:56:20;;;;;;;5.23;2.30;;;22.40;99.90;;;;;;5063549;28;20172;-44
2022/08/26 10:59:02;;;;;;;6.73;2.33;;;22.50;99.90;;;;;;5063941;28;20169;-44
2022/08/26 11:01:41;;;;;;;4.90;2.20;;;22.40;99.90;;;;;;5063682;28;20188;-43
2022/08/26 11:04:31;;;;;;;7.40;2.57;;;22.50;99.90;;;;;;5063885;28;20190;-45
2022/08/26 11:07:35;;;;;;;10.27;3.10;;;22.50;99.90;;;;;;5064534;28;20536;-45
2022/08/26 11:10:07;;;;;;;5.47;1.87;;;22.40;99.90;;;;;;5064392;28;20225;-45
2022/08/26 11:12:36;;;;;;;6.20;2.10;;;22.40;99.90;;;;;;5063625;28;20218;-45
2022/08/26 11:15:05;;;;;;;4.70;2.00;;;22.50;99.90;;;;;;5064535;28;20235;-45
2022/08/26 11:17:45;;;;;;;5.13;2.13;;;22.50;99.90;;;;;;5064204;28;20176;-45
2022/08/26 11:20:32;;;;;;;6.00;2.17;;;22.40;99.90;;;;;;5063756;28;20176;-45
2022/08/26 11:23:25;;;;;;;6.70;2.40;;;22.40;99.90;;;;;;5047025;28;20679;-46
2022/08/26 11:25:59;;;;;;;5.93;2.37;;;22.40;99.90;;;;;;5028072;28;20255;-45
2022/08/26 11:28:39;;;;;;;5.27;2.10;;;22.30;99.90;;;;;;5064379;28;20183;-44
2022/08/26 11:31:29;;;;;;;6.77;2.50;;;22.20;99.90;;;;;;5064616;28;20208;-45
2022/08/26 11:33:58;;;;;;;5.83;2.63;;;22.30;99.90;;;;;;5051262;28;20247;-45
2022/08/26 11:36:42;;;;;;;4.53;2.07;;;22.20;99.90;;;;;;5066861;28;20651;-45
2022/08/26 11:39:17;;;;;;;3.60;1.87;;;22.10;99.90;;;;;;5033031;28;20652;-45
2022/08/26 11:41:46;;;;;;;7.47;2.40;;;22.20;99.90;;;;;;5067105;28;20200;-45
2022/08/26 11:44:23;;;;;;;5.30;1.83;;;22.30;99.90;;;;;;5067371;28;20581;-45
2022/08/26 11:46:57;;;;;;;6.77;1.93;;;22.20;99.90;;;;;;5067431;28;20172;-44
2022/08/26 11:49:23;;;;;;;7.97;2.80;;;22.20;99.90;;;;;;5067034;28;20168;-46
2022/08/26 11:51:49;;;;;;;5.60;2.07;;;22.20;99.90;;;;;;5065432;28;20196;-44
2022/08/26 11:54:21;;;;;;;4.33;1.87;;;22.20;99.90;;;;;;5067087;28;20215;-44
2022/08/26 11:56:51;;;;;;;5.70;2.37;;;22.30;99.90;;;;;;5068026;28;20299;-44
2022/08/26 11:59:22;;;;;;;10.70;2.67;;;22.20;99.90;;;;;;5048728;28;20780;-45
2022/08/26 12:01:51;;;;;;;6.23;2.30;;;22.30;99.90;;;;;;5048690;28;20656;-44
2022/08/26 12:04:30;;;;;;;7.73;2.03;;;22.30;99.90;;;;;;5047603;28;20184;-45
2022/08/26 12:06:57;;;;;;;5.87;2.20;;;22.30;99.90;;;;;;5066812;28;20172;-45
2022/08/26 12:09:27;;;;;;;6.60;2.20;;;22.30;99.90;;;;;;5066960;28;20246;-45
2022/08/26 12:12:12;;;;;;;4.53;2.03;;;22.30;99.90;;;;;;5067434;28;20192;-44
2022/08/26 12:14:38;;;;;;;4.83;2.57;;;22.30;99.90;;;;;;5048109;28;20665;-44
2022/08/26 12:17:10;;;;;;;6.47;2.20;;;22.30;99.90;;;;;;5066604;28;20298;-45
2022/08/26 12:19:36;;;;;;;5.37;2.17;;;22.30;99.90;;;;;;5048639;28;20180;-45
2022/08/26 12:22:19;;;;;;;6.47;2.10;;;22.20;99.90;;;;;;5048826;28;20550;-44
2022/08/26 12:24:58;;;;;;;2.63;1.30;;;22.20;99.90;;;;;;5066623;28;20184;-45
2022/08/26 12:27:27;;;;;;;5.83;1.60;;;22.20;99.90;;;;;;5064608;28;20171;-45
2022/08/26 12:30:15;;;;;;;4.07;1.87;;;22.20;99.90;;;;;;5065233;28;20197;-45
2022/08/26 12:32:49;;;;;;;3.47;1.93;;;22.10;99.90;;;;;;5064408;28;20215;-45
2022/08/26 12:35:18;;;;;;;4.70;1.83;;;22.10;99.90;;;;;;5063910;28;20547;-43
2022/08/26 12:37:47;;;;;;;7.97;1.73;;;22.10;99.90;;;;;;5063924;28;20215;-45
2022/08/26 12:40:41;;;;;;;8.67;1.93;;;22.10;99.90;;;;;;5063912;28;20173;-45
2022/08/26 12:43:08;;;;;;;5.37;1.87;;;22.10;99.90;;;;;;5038209;28;20188;-44
2022/08/26 12:45:42;;;;;;;4.13;1.90;;;22.10;99.90;;;;;;5063751;28;20184;-44
2022/08/26 12:48:12;;;;;;;4.87;1.83;;;22.00;99.90;;;;;;5046705;28;20658;-46
2022/08/26 12:50:45;;;;;;;6.50;1.80;;;22.00;99.90;;;;;;5064000;28;20194;-44
2022/08/26 12:53:11;;;;;;;9.83;1.83;;;22.10;99.90;;;;;;5063516;28;20204;-42
2022/08/26 12:55:42;;;;;;;2.87;1.60;;;22.10;99.90;;;;;;5044200;28;20176;-43
2022/08/26 12:58:15;;;;;;;3.57;1.63;;;22.00;99.90;;;;;;5055951;28;20275;-41
2022/08/26 13:00:46;;;;;;;5.67;2.27;;;22.00;99.90;;;;;;5055674;28;20169;-40